Time;durP1;ratioP1;P1;durP2;ratioP2;P2;SDS_P1;SDS_P2;PMS_P1;PMS_P2;Temp;Humidity;BMP_temperature;BMP_pressure;BME280_temperature;BME280_humidity;BME280_pressure;Samples;Min_cycle;Max_cycle;Signal;HPM_P1;HPM_P2
2022/01/10 00:01:54;;;;;;;129.75;54.40;;;;;;;-8.83;85.97;99749.37;1441744;89;21629;-80
2022/01/10 00:04:21;;;;;;;124.33;51.77;;;;;;;-8.81;85.81;99748.45;1448631;89;21415;-79
2022/01/10 00:06:49;;;;;;;111.57;48.33;;;;;;;-8.77;85.90;99742.37;1449557;89;21473;-80
2022/01/10 00:09:16;;;;;;;107.95;44.53;;;;;;;-8.76;86.04;99748.34;1443907;89;21466;-80
2022/01/10 00:11:43;;;;;;;115.85;48.68;;;;;;;-8.91;86.09;99751.73;1436423;88;21414;-81
2022/01/10 00:14:10;;;;;;;116.05;45.30;;;;;;;-9.01;86.86;99750.73;1446637;89;21635;-81
2022/01/10 00:16:37;;;;;;;123.72;56.35;;;;;;;-9.07;87.31;99747.05;1439449;89;21480;-81
2022/01/10 00:19:04;;;;;;;113.97;48.87;;;;;;;-8.98;87.44;99759.62;1449816;88;22913;-81
2022/01/10 00:21:31;;;;;;;105.95;46.85;;;;;;;-8.90;87.68;99751.28;1448874;89;21487;-81
2022/01/10 00:23:59;;;;;;;101.67;46.73;;;;;;;-8.88;88.36;99764.91;1449606;89;21444;-81
2022/01/10 00:26:26;;;;;;;116.55;47.75;;;;;;;-8.87;88.02;99760.17;1433553;89;21443;-81
2022/01/10 00:28:53;;;;;;;123.30;50.95;;;;;;;-8.86;87.93;99757.58;1449923;89;21611;-80
2022/01/10 00:31:20;;;;;;;123.40;52.78;;;;;;;-8.80;87.89;99757.85;1437176;89;21459;-81
2022/01/10 00:33:47;;;;;;;110.28;48.35;;;;;;;-8.72;87.80;99759.73;1425299;90;21473;-80
2022/01/10 00:36:14;;;;;;;113.60;47.80;;;;;;;-8.66;87.31;99768.57;1446729;89;22501;-81
2022/01/10 00:38:42;;;;;;;122.40;51.08;;;;;;;-8.59;87.45;99763.27;1440798;89;21459;-80
2022/01/10 00:41:10;;;;;;;113.88;49.83;;;;;;;-8.55;87.18;99757.98;1442629;89;21716;-80
2022/01/10 00:43:41;;;;;;;121.97;48.63;;;;;;;-8.51;87.14;99763.89;1450478;89;21466;-80
2022/01/10 00:46:06;;;;;;;118.33;51.55;;;;;;;-8.51;86.84;99760.03;1439319;89;21569;-80
2022/01/10 00:48:34;;;;;;;114.47;50.90;;;;;;;-8.54;86.67;99763.98;1448040;89;21531;-80
2022/01/10 00:51:01;;;;;;;128.57;52.83;;;;;;;-8.45;86.72;99764.98;1448168;89;21488;-80
2022/01/10 00:53:28;;;;;;;125.47;50.03;;;;;;;-8.41;87.42;99757.59;1442049;89;21541;-81
2022/01/10 00:55:56;;;;;;;113.90;49.00;;;;;;;-8.43;86.92;99755.08;1448492;88;22538;-82
2022/01/10 00:58:23;;;;;;;117.70;48.98;;;;;;;-8.41;86.70;99756.30;1431279;89;21449;-81
2022/01/10 01:00:53;;;;;;;118.22;49.90;;;;;;;-8.40;87.08;99752.84;1437047;89;22472;-81
2022/01/10 01:03:21;;;;;;;131.93;53.02;;;;;;;-8.39;87.30;99748.13;1438752;88;21591;-82
2022/01/10 01:05:48;;;;;;;131.87;55.78;;;;;;;-8.35;87.06;99743.70;1443820;89;22471;-83
2022/01/10 01:08:15;;;;;;;116.00;49.85;;;;;;;-8.44;86.33;99747.41;1442093;90;21311;-81
2022/01/10 01:26:45;;;;;;;127.97;49.08;;;;;;;-8.64;86.40;99723.61;1453382;88;21725;-79
2022/01/10 01:29:16;;;;;;;139.30;56.30;;;;;;;-8.66;86.51;99732.66;1461166;88;21605;-80
2022/01/10 01:31:44;;;;;;;127.67;54.48;;;;;;;-8.60;85.99;99737.19;1451576;88;21495;-80
2022/01/10 01:34:14;;;;;;;149.12;62.13;;;;;;;-8.51;86.74;99747.20;1455223;88;21551;-80
2022/01/10 01:36:46;;;;;;;134.20;55.85;;;;;;;-8.38;87.00;99748.48;1433412;89;21501;-80
2022/01/10 01:39:23;;;;;;;144.47;58.70;;;;;;;-8.26;86.95;99749.39;1453763;88;21636;-79
2022/01/10 01:42:02;;;;;;;136.77;54.73;;;;;;;-8.19;87.02;99740.63;1452069;88;21503;-80
2022/01/10 01:44:27;;;;;;;142.30;54.75;;;;;;;-8.15;86.93;99740.53;1458149;88;21565;-80
2022/01/10 01:46:54;;;;;;;150.05;59.08;;;;;;;-8.14;86.77;99737.94;1455256;89;21478;-80
2022/01/10 01:49:21;;;;;;;157.82;57.90;;;;;;;-8.08;86.95;99747.18;1445136;88;22679;-80
2022/01/10 01:51:50;;;;;;;142.13;57.65;;;;;;;-8.00;87.51;99758.03;1450908;88;22541;-80
2022/01/10 01:54:18;;;;;;;144.22;58.05;;;;;;;-7.91;87.26;99756.90;1449905;88;21607;-81
2022/01/10 01:56:48;;;;;;;153.10;62.45;;;;;;;-7.83;87.03;99769.06;1459469;87;21539;-81
2022/01/10 01:59:16;;;;;;;148.22;62.53;;;;;;;-7.73;86.58;99761.03;1451321;88;21672;-81
2022/01/10 02:01:44;;;;;;;148.57;60.48;;;;;;;-7.69;86.61;99766.91;1444204;88;22062;-82
2022/01/10 02:04:11;;;;;;;130.47;53.65;;;;;;;-7.62;86.88;99773.96;1460771;88;21548;-83
2022/01/10 02:06:39;;;;;;;146.50;59.50;;;;;;;-7.59;87.48;99776.02;1427546;90;22076;-83
2022/01/10 02:09:06;;;;;;;142.70;58.92;;;;;;;-7.52;87.35;99771.50;1390447;92;21459;-82
2022/01/10 02:11:33;;;;;;;134.18;55.35;;;;;;;-7.49;87.21;99768.83;1399505;92;22405;-81
2022/01/10 02:14:01;;;;;;;150.62;60.12;;;;;;;-7.47;87.04;99768.34;1399616;91;21416;-82
2022/01/10 02:16:44;;;;;;;139.30;57.75;;;;;;;-7.48;87.45;99766.64;1409001;92;21458;-80
2022/01/10 02:19:12;;;;;;;131.30;56.25;;;;;;;-7.47;86.79;99776.05;1427675;90;21554;-80
2022/01/10 02:21:39;;;;;;;117.25;50.60;;;;;;;;;;1432442;90;22455;-81
2022/01/10 02:24:07;;;;;;;123.13;50.63;;;;;;;-7.40;87.55;99761.26;1404319;91;21493;-80
2022/01/10 02:26:34;;;;;;;117.40;46.90;;;;;;;-7.50;87.68;99762.02;1414195;90;21420;-80
2022/01/10 02:29:05;;;;;;;112.83;46.15;;;;;;;-7.57;87.19;99761.36;1409531;91;21549;-80
2022/01/10 02:31:39;;;;;;;94.97;39.30;;;;;;;-7.69;86.97;99759.64;1395866;90;21517;-80
2022/01/10 02:34:08;;;;;;;114.20;49.15;;;;;;;-7.82;86.97;99760.04;1416735;91;21667;-80
2022/01/10 02:36:35;;;;;;;121.72;50.55;;;;;;;-7.91;87.20;99753.92;1420852;91;21473;-80
2022/01/10 02:39:08;;;;;;;105.15;44.40;;;;;;;-7.94;87.81;99759.12;1408625;91;21461;-80
2022/01/10 02:41:40;;;;;;;125.90;51.92;;;;;;;-7.98;88.10;99760.95;1432021;90;21442;-81
2022/01/10 02:44:11;;;;;;;113.57;49.50;;;;;;;-8.04;87.87;99750.03;1440883;90;21716;-81
2022/01/10 02:46:40;;;;;;;121.65;49.10;;;;;;;-8.10;89.09;99746.38;1414091;89;21476;-82
2022/01/10 02:49:13;;;;;;;111.80;49.10;;;;;;;-8.12;89.28;99746.86;1408131;90;22378;-82
2022/01/10 02:51:41;;;;;;;120.10;54.45;;;;;;;-8.08;89.25;99754.44;1409236;91;21521;-82
2022/01/10 02:54:09;;;;;;;96.42;43.55;;;;;;;-8.00;89.58;99750.33;1422059;89;22438;-82
2022/01/10 02:56:53;;;;;;;96.37;45.40;;;;;;;-8.06;88.98;99754.37;1417101;90;21536;-82
2022/01/10 02:59:22;;;;;;;95.07;44.27;;;;;;;-8.06;88.62;99759.50;1413011;89;21557;-81
2022/01/10 03:01:51;;;;;;;90.95;41.92;;;;;;;-8.07;88.51;99764.26;1407826;90;21447;-81
2022/01/10 03:04:19;;;;;;;88.10;40.90;;;;;;;-8.09;88.29;99766.02;1414374;91;21617;-81
2022/01/10 03:06:48;;;;;;;92.65;44.90;;;;;;;-8.16;88.00;99762.81;1443895;88;21464;-81
2022/01/10 03:09:15;;;;;;;83.17;39.48;;;;;;;-8.15;87.82;99771.34;1448720;88;22523;-81
2022/01/10 03:11:43;;;;;;;82.88;41.53;;;;;;;-8.23;87.63;99763.45;1446383;88;21428;-81
2022/01/10 03:14:12;;;;;;;85.90;38.92;;;;;;;-8.37;87.49;99766.00;1449870;88;21404;-81
2022/01/10 03:16:40;;;;;;;100.33;44.48;;;;;;;-8.49;87.78;99769.34;1436355;88;22576;-80
2022/01/10 03:19:08;;;;;;;104.97;48.25;;;;;;;-8.50;87.85;99773.26;1456599;88;21478;-81
2022/01/10 03:21:35;;;;;;;91.85;44.75;;;;;;;-8.50;87.76;99775.83;1444201;88;21414;-80
2022/01/10 03:24:03;;;;;;;97.47;43.85;;;;;;;-8.47;87.72;99773.17;1435304;88;21385;-81
2022/01/10 03:26:32;;;;;;;103.47;47.13;;;;;;;-8.43;87.61;99774.74;1454022;88;21518;-81
2022/01/10 03:29:02;;;;;;;117.85;51.48;;;;;;;-8.39;87.59;99773.79;1446120;88;21434;-82
2022/01/10 03:31:30;;;;;;;70.17;33.83;;;;;;;-8.37;87.77;99773.28;1437708;89;21519;-81
2022/01/10 03:33:57;;;;;;;108.87;46.53;;;;;;;-8.34;87.53;99777.04;1428668;90;21466;-81
2022/01/10 03:36:24;;;;;;;88.10;41.00;;;;;;;-8.35;86.75;99783.03;1448045;88;22396;-81
2022/01/10 03:38:51;;;;;;;106.97;46.77;;;;;;;-8.41;86.22;99778.95;1423466;88;22305;-80
2022/01/10 03:41:18;;;;;;;114.17;51.10;;;;;;;-8.51;85.70;99779.28;1458270;88;21722;-82
2022/01/10 03:43:46;;;;;;;110.75;50.88;;;;;;;-8.56;85.56;99779.85;1451924;88;22620;-83
2022/01/10 03:46:14;;;;;;;117.42;52.53;;;;;;;-8.56;85.92;99784.98;1445141;87;21486;-82
2022/01/10 03:48:41;;;;;;;119.57;51.10;;;;;;;-8.59;85.91;99781.22;1455963;88;23598;-82
2022/01/10 03:51:08;;;;;;;109.57;47.40;;;;;;;-8.62;85.52;99781.31;1451740;88;21613;-81
2022/01/10 03:53:36;;;;;;;103.62;45.75;;;;;;;-8.66;85.49;99780.53;1455917;89;21432;-81
2022/01/10 03:56:04;;;;;;;98.87;43.65;;;;;;;-8.74;85.19;99778.20;1458456;88;21508;-81
2022/01/10 03:58:32;;;;;;;112.97;51.33;;;;;;;-8.91;84.91;99779.94;1463086;88;21420;-80
2022/01/10 04:01:01;;;;;;;107.45;44.33;;;;;;;-8.96;84.74;99780.94;1460411;88;21518;-81
2022/01/10 04:03:28;;;;;;;104.50;43.83;;;;;;;-8.95;85.19;99787.74;1451688;87;21607;-81
2022/01/10 04:05:58;;;;;;;118.65;48.00;;;;;;;-8.95;84.96;99795.44;1448260;88;21418;-81
2022/01/10 04:08:25;;;;;;;100.33;45.38;;;;;;;-8.98;84.75;99791.23;1459482;88;21463;-80
2022/01/10 04:10:53;;;;;;;111.05;46.90;;;;;;;-9.05;84.60;99788.44;1430201;90;22300;-80
2022/01/10 04:13:20;;;;;;;108.52;48.10;;;;;;;-9.13;84.40;99784.78;1435052;90;21688;-81
2022/01/10 04:15:47;;;;;;;110.95;48.38;;;;;;;-9.12;84.54;99786.48;1429690;90;21467;-81
2022/01/10 04:18:14;;;;;;;101.10;43.52;;;;;;;-9.09;85.35;99794.09;1424876;90;22320;-80
2022/01/10 04:20:44;;;;;;;100.33;47.23;;;;;;;-9.05;85.30;99790.16;1439834;90;21450;-81
2022/01/10 04:23:13;;;;;;;88.12;41.95;;;;;;;-9.02;85.07;99789.64;1424979;90;21393;-81
2022/01/10 04:25:40;;;;;;;97.37;42.67;;;;;;;-8.99;84.28;99797.69;1433342;88;21451;-81
2022/01/10 04:28:07;;;;;;;99.05;43.52;;;;;;;-9.03;83.42;99799.92;1455391;88;21573;-81
2022/01/10 04:30:35;;;;;;;94.80;43.70;;;;;;;-9.09;82.96;99799.64;1452471;88;21485;-82
2022/01/10 04:33:03;;;;;;;100.02;43.90;;;;;;;-9.11;83.18;99800.97;1451098;87;21441;-81
2022/01/10 04:35:32;;;;;;;89.60;40.70;;;;;;;-9.09;83.17;99799.64;1430257;89;22383;-82
2022/01/10 04:37:59;;;;;;;91.82;40.58;;;;;;;-9.11;83.13;99802.25;1456014;88;21584;-82
2022/01/10 04:40:27;;;;;;;89.13;41.77;;;;;;;-9.11;83.01;99801.42;1449131;88;21459;-82
2022/01/10 04:42:55;;;;;;;90.97;40.28;;;;;;;-9.13;82.59;99807.86;1446319;88;22280;-82
2022/01/10 04:45:22;;;;;;;114.52;50.98;;;;;;;-9.20;82.14;99814.03;1462752;88;21420;-81
2022/01/10 04:47:49;;;;;;;103.67;43.73;;;;;;;-9.27;81.96;99818.06;1414543;91;21510;-82
2022/01/10 04:52:44;;;;;;;101.82;43.00;;;;;;;-9.43;82.94;99813.32;1419159;91;21556;-82
2022/01/10 04:55:13;;;;;;;90.15;41.05;;;;;;;-9.48;83.08;99824.11;1433774;90;21517;-82
2022/01/10 04:57:41;;;;;;;111.22;43.35;;;;;;;-9.54;83.33;99825.55;1427979;90;22414;-82
2022/01/10 05:00:12;;;;;;;103.47;45.45;;;;;;;-9.62;83.69;99815.91;1428209;90;22156;-81
2022/01/10 05:02:43;;;;;;;97.63;43.60;;;;;;;-9.66;83.37;99810.03;1436273;90;21497;-82
2022/01/10 05:05:11;;;;;;;106.12;44.25;;;;;;;-9.73;83.32;99822.56;1435112;90;21497;-82
2022/01/10 05:07:39;;;;;;;108.12;45.15;;;;;;;-9.78;83.38;99825.66;1427105;90;21583;-82
2022/01/10 05:10:06;;;;;;;115.92;46.05;;;;;;;-9.78;83.88;99829.50;1445622;90;21547;-82
2022/01/10 05:12:34;;;;;;;126.35;49.25;;;;;;;-9.73;84.37;99830.69;1407201;90;21519;-82
2022/01/10 05:15:01;;;;;;;135.55;51.95;;;;;;;-9.70;84.29;99824.21;1433663;90;22433;-82
2022/01/10 05:17:28;;;;;;;150.22;57.83;;;;;;;-9.67;83.84;99826.25;1422585;90;21355;-82
2022/01/10 05:19:55;;;;;;;133.95;52.38;;;;;;;-9.64;84.27;99823.62;1424663;90;21422;-80
2022/01/10 05:22:23;;;;;;;119.62;47.55;;;;;;;-9.60;84.07;99823.97;1429699;90;21627;-81
2022/01/10 05:24:50;;;;;;;124.82;51.40;;;;;;;-9.58;83.47;99827.34;1426766;90;21453;-81
2022/01/10 05:27:17;;;;;;;115.75;47.20;;;;;;;-9.56;83.65;99832.41;1425915;90;22396;-82
2022/01/10 05:29:44;;;;;;;120.47;48.70;;;;;;;-9.56;83.69;99835.81;1415256;91;21437;-82
2022/01/10 05:32:12;;;;;;;114.70;48.65;;;;;;;-9.56;83.57;99829.41;1414344;90;21402;-81
2022/01/10 05:34:39;;;;;;;118.28;46.13;;;;;;;-9.51;83.46;99837.44;1423744;90;21426;-81
2022/01/10 05:37:06;;;;;;;112.52;46.13;;;;;;;-9.50;83.27;99836.11;1419923;91;21454;-82
2022/01/10 05:39:33;;;;;;;124.50;47.13;;;;;;;-9.51;84.08;99842.56;1412051;90;22391;-82
2022/01/10 05:42:00;;;;;;;114.67;46.58;;;;;;;-9.52;83.31;99844.30;1403249;91;21420;-80
2022/01/10 05:44:28;;;;;;;117.37;46.35;;;;;;;-9.51;83.97;99856.66;1404095;92;21474;-80
2022/01/10 05:46:56;;;;;;;133.87;55.90;;;;;;;-9.52;84.00;99856.23;1402471;91;22403;-80
2022/01/10 05:49:29;;;;;;;147.35;59.45;;;;;;;-9.60;81.53;99861.11;1401619;92;21459;-80
2022/01/10 05:51:53;;;;;;;146.18;58.48;;;;;;;-9.72;80.80;99857.55;1428870;89;21452;-80
2022/01/10 05:54:20;;;;;;;156.18;58.33;;;;;;;-9.80;80.65;99858.16;1405078;91;21621;-80
2022/01/10 05:56:47;;;;;;;169.28;70.28;;;;;;;-9.92;80.49;99858.44;1403295;91;22430;-79
2022/01/10 05:59:15;;;;;;;146.50;58.83;;;;;;;-10.00;80.48;99853.03;1417977;90;21486;-79
2022/01/10 06:01:43;;;;;;;136.52;55.12;;;;;;;-10.04;80.70;99863.36;1430064;90;21447;-80
2022/01/10 06:04:10;;;;;;;126.58;50.73;;;;;;;-10.19;81.04;99873.48;1418280;90;22334;-81
2022/01/10 06:06:37;;;;;;;137.77;54.63;;;;;;;-10.36;81.19;99874.28;1411866;91;21496;-78
2022/01/10 06:09:04;;;;;;;143.75;57.23;;;;;;;-10.45;81.19;99871.03;1395028;91;22468;-78
2022/01/10 06:11:31;;;;;;;141.47;54.60;;;;;;;-10.56;81.42;99872.95;1422332;90;21444;-77
2022/01/10 06:13:59;;;;;;;158.42;63.80;;;;;;;-10.65;81.85;99874.41;1412176;90;22494;-78
2022/01/10 06:16:27;;;;;;;367.80;138.12;;;;;;;-10.67;82.33;99876.17;1385020;92;21437;-77
2022/01/10 06:18:54;;;;;;;264.80;95.62;;;;;;;-10.71;82.60;99879.63;1411135;90;21464;-78
2022/01/10 06:21:22;;;;;;;632.05;236.00;;;;;;;-10.81;83.18;99891.75;1407336;91;22306;-78
2022/01/10 06:23:49;;;;;;;830.80;359.35;;;;;;;-10.88;83.45;99884.20;1404260;91;21727;-78
2022/01/10 06:26:19;;;;;;;436.65;169.72;;;;;;;-10.91;83.61;99889.77;1444703;88;21590;-78
2022/01/10 06:28:46;;;;;;;205.05;81.05;;;;;;;-10.90;83.68;99889.36;1441269;88;21428;-78
2022/01/10 06:31:13;;;;;;;125.35;52.00;;;;;;;-10.88;83.37;99891.44;1453927;88;21598;-81
2022/01/10 06:33:41;;;;;;;115.97;51.50;;;;;;;-10.91;82.46;99897.44;1446761;88;21458;-81
2022/01/10 06:36:09;;;;;;;120.25;51.08;;;;;;;-10.93;82.31;99899.64;1457171;87;21520;-81
2022/01/10 06:38:36;;;;;;;106.90;48.48;;;;;;;-10.91;82.04;99901.27;1406810;88;21481;-81
2022/01/10 06:41:03;;;;;;;96.08;42.95;;;;;;;-10.92;81.36;99909.83;1439183;87;22310;-82
2022/01/10 06:43:31;;;;;;;96.72;41.70;;;;;;;-10.89;82.15;99911.93;1440070;88;21488;-81
2022/01/10 06:45:58;;;;;;;97.80;41.30;;;;;;;-10.87;81.39;99915.28;1444541;88;22270;-81
2022/01/10 06:48:26;;;;;;;96.80;41.85;;;;;;;-10.86;81.38;99916.55;1441730;88;21326;-82
2022/01/10 06:50:54;;;;;;;91.05;40.98;;;;;;;-10.80;81.44;99921.99;1437443;87;21429;-81
2022/01/10 06:53:22;;;;;;;67.75;33.65;;;;;;;-10.69;81.56;99926.48;1444934;88;21621;-81
2022/01/10 06:55:50;;;;;;;76.28;35.70;;;;;;;-10.75;80.96;99921.48;1413611;88;21328;-81
2022/01/10 06:58:17;;;;;;;79.22;36.93;;;;;;;-10.76;80.87;99922.34;1412291;88;21540;-81
2022/01/10 07:00:45;;;;;;;82.55;38.15;;;;;;;-10.70;80.85;99928.65;1405803;89;21375;-82
2022/01/10 07:03:13;;;;;;;77.85;36.93;;;;;;;-10.64;80.10;99922.55;1425901;88;21313;-81
2022/01/10 07:05:40;;;;;;;76.70;34.18;;;;;;;-10.56;80.29;99936.05;1378328;87;22347;-82
2022/01/10 07:08:07;;;;;;;77.97;36.03;;;;;;;-10.49;80.85;99928.25;1381589;90;21356;-82
2022/01/10 07:10:34;;;;;;;80.22;37.55;;;;;;;-10.37;80.81;99922.06;1400908;89;22303;-82
2022/01/10 07:13:01;;;;;;;78.42;38.20;;;;;;;-10.24;80.29;99922.63;1407578;89;21291;-83
2022/01/10 07:15:29;;;;;;;86.37;40.25;;;;;;;-10.07;80.24;99932.13;1359941;89;21310;-82
2022/01/10 07:17:56;;;;;;;76.57;35.30;;;;;;;-9.93;80.20;99927.14;1415666;88;21301;-82
2022/01/10 07:20:24;;;;;;;76.50;36.55;;;;;;;-9.76;80.54;99937.88;1416096;88;21327;-82
2022/01/10 07:23:13;;;;;;;80.17;39.30;;;;;;;-9.59;80.74;99938.80;1447617;88;21524;-82
2022/01/10 07:25:41;;;;;;;81.28;39.15;;;;;;;-9.41;80.83;99943.51;1417174;87;22238;-82
2022/01/10 07:28:09;;;;;;;76.25;39.42;;;;;;;-9.26;80.90;99957.73;1399670;90;21549;-82
2022/01/10 07:30:36;;;;;;;87.15;41.40;;;;;;;-9.09;81.10;99956.03;1423633;90;21394;-83
2022/01/10 07:33:03;;;;;;;95.00;44.80;;;;;;;-8.90;81.07;99956.45;1474470;90;21347;-82
2022/01/10 07:35:30;;;;;;;98.22;51.37;;;;;;;-8.75;80.66;99956.06;1474809;89;21387;-82
2022/01/10 07:37:58;;;;;;;112.57;52.73;;;;;;;-8.54;81.20;99965.42;1450195;89;21430;-82
2022/01/10 07:40:25;;;;;;;108.45;53.87;;;;;;;-8.36;80.88;99967.47;1433970;89;21509;-82
2022/01/10 07:42:52;;;;;;;130.10;64.47;;;;;;;-8.17;81.17;99966.52;1427850;89;21428;-82
2022/01/10 07:45:20;;;;;;;161.60;72.80;;;;;;;-8.00;80.73;99963.50;1376853;91;22347;-82
2022/01/10 07:47:48;;;;;;;115.67;57.08;;;;;;;-7.81;80.62;99967.70;1415330;89;21398;-80
2022/01/10 07:50:15;;;;;;;120.13;56.53;;;;;;;-7.72;79.35;99959.72;1363687;91;21402;-80
2022/01/10 07:52:42;;;;;;;113.50;54.53;;;;;;;-7.63;79.08;99958.61;1399583;90;22289;-82
2022/01/10 07:55:10;;;;;;;114.65;52.90;;;;;;;-7.57;78.92;99963.11;1422426;88;22776;-82
2022/01/10 07:57:38;;;;;;;114.67;56.05;;;;;;;-7.48;79.18;99967.14;1438674;88;21348;-82
2022/01/10 08:00:07;;;;;;;110.52;51.75;;;;;;;-7.35;79.39;99972.78;1427366;88;22355;-84
2022/01/10 08:02:34;;;;;;;102.12;52.67;;;;;;;-7.22;79.30;99975.81;1419155;88;21354;-83
2022/01/10 08:05:08;;;;;;;101.62;48.30;;;;;;;-7.07;79.37;99975.36;1413982;87;21464;-83
2022/01/10 08:07:35;;;;;;;98.47;48.20;;;;;;;-6.91;79.32;99979.11;1405517;88;21389;-82
2022/01/10 08:10:12;;;;;;;105.00;50.30;;;;;;;-6.81;79.05;99975.82;1422529;88;21490;-85
2022/01/10 08:12:39;;;;;;;115.28;53.85;;;;;;;-6.71;79.10;99980.21;1447499;87;21377;-82
2022/01/10 08:15:08;;;;;;;113.77;54.93;;;;;;;-6.57;78.83;99981.05;1430697;88;22256;-83
2022/01/10 08:17:36;;;;;;;109.27;52.48;;;;;;;-6.50;78.44;99976.95;1412700;88;21279;-82
2022/01/10 08:20:05;;;;;;;100.42;48.40;;;;;;;-6.44;78.43;99969.02;1437955;88;21364;-82
2022/01/10 08:22:32;;;;;;;103.62;48.95;;;;;;;-6.39;78.30;99968.42;1428944;89;21269;-81
2022/01/10 08:24:59;;;;;;;109.95;50.92;;;;;;;-6.32;78.42;99970.78;1433455;88;21368;-83
2022/01/10 08:27:27;;;;;;;102.30;49.33;;;;;;;-6.22;78.68;99974.71;1434314;88;22316;-83
2022/01/10 08:29:54;;;;;;;100.18;48.08;;;;;;;-6.08;79.07;99972.50;1441546;88;21473;-80
2022/01/10 08:32:21;;;;;;;92.50;46.35;;;;;;;-5.90;79.06;99976.98;1441107;87;22327;-81
2022/01/10 08:34:51;;;;;;;98.42;46.00;;;;;;;-5.77;79.07;99979.11;1455885;88;21716;-82
2022/01/10 08:37:19;;;;;;;94.58;46.08;;;;;;;-5.61;79.05;99984.11;1388719;88;21376;-81
2022/01/10 08:39:49;;;;;;;87.85;45.28;;;;;;;-5.47;78.40;99996.47;1403471;88;21340;-80
2022/01/10 08:42:17;;;;;;;84.62;43.38;;;;;;;-5.32;78.51;99997.63;1404609;88;21453;-81
2022/01/10 08:44:45;;;;;;;78.57;40.73;;;;;;;-5.26;77.82;99998.72;1381011;87;21347;-81
2022/01/10 08:47:13;;;;;;;92.78;46.50;;;;;;;-5.11;78.41;100009.73;1394067;87;21512;-81
2022/01/10 08:49:41;;;;;;;85.85;43.58;;;;;;;-4.97;78.52;100008.38;1403585;88;22758;-81
2022/01/10 08:52:08;;;;;;;90.00;43.30;;;;;;;-4.79;78.81;100006.34;1402260;87;21334;-81
2022/01/10 08:54:36;;;;;;;76.30;39.23;;;;;;;-4.63;77.90;100008.72;1369490;87;21545;-81
2022/01/10 08:57:04;;;;;;;77.27;39.78;;;;;;;-4.51;78.07;99998.79;1373521;88;21443;-81
2022/01/10 08:59:32;;;;;;;80.25;39.63;;;;;;;-4.54;77.82;99997.17;1378148;88;21288;-81
2022/01/10 09:01:59;;;;;;;84.17;43.55;;;;;;;-4.39;78.56;100000.86;1387492;88;21353;-81
2022/01/10 09:04:27;;;;;;;87.33;44.33;;;;;;;-4.30;79.04;100006.94;1394522;88;21351;-81
2022/01/10 09:06:59;;;;;;;75.65;33.90;;;;;;;-4.17;79.08;99999.49;1406131;87;21451;-81
2022/01/10 09:09:26;;;;;;;65.08;33.40;;;;;;;-4.16;79.34;99996.86;1386170;89;22344;-81
2022/01/10 09:11:53;;;;;;;60.60;30.17;;;;;;;-4.17;80.31;100001.65;1370549;89;21319;-80
2022/01/10 09:14:21;;;;;;;82.80;42.10;;;;;;;-4.11;80.43;100000.55;1387485;88;21349;-81
2022/01/10 09:16:48;;;;;;;64.77;34.73;;;;;;;-3.91;80.46;100006.16;1390316;88;21471;-81
2022/01/10 09:19:15;;;;;;;58.60;31.62;;;;;;;-3.72;80.36;100007.47;1381821;88;21591;-81
2022/01/10 09:21:42;;;;;;;60.40;29.80;;;;;;;-3.60;80.07;100006.09;1368094;88;21408;-81
2022/01/10 09:24:10;;;;;;;56.28;30.15;;;;;;;-3.60;79.72;100006.09;1400808;88;21448;-81
2022/01/10 09:26:37;;;;;;;74.62;38.65;;;;;;;-3.40;80.38;100008.62;1392907;88;22382;-81
2022/01/10 09:29:07;;;;;;;57.38;29.82;;;;;;;-3.29;79.84;100007.68;1383957;88;21443;-81
2022/01/10 09:31:35;;;;;;;53.02;24.92;;;;;;;-3.12;79.71;100009.95;1399325;90;21430;-81
2022/01/10 09:34:02;;;;;;;55.15;29.12;;;;;;;-3.08;79.11;100012.77;1376327;90;21484;-81
2022/01/10 09:36:34;;;;;;;55.78;29.52;;;;;;;-2.99;79.20;100013.20;1379281;90;21357;-81
2022/01/10 09:39:03;;;;;;;56.30;28.20;;;;;;;-2.83;79.06;100017.19;1369940;89;21491;-81
2022/01/10 09:41:31;;;;;;;48.80;25.48;;;;;;;-2.80;78.92;100014.45;1379871;91;21452;-81
2022/01/10 09:44:02;;;;;;;44.05;22.65;;;;;;;-2.62;79.03;100015.78;1383872;91;21461;-81
2022/01/10 09:46:32;;;;;;;41.92;22.95;;;;;;;-2.53;77.78;100011.47;1389260;90;22569;-81
2022/01/10 09:49:02;;;;;;;46.00;27.00;;;;;;;-2.35;77.51;100006.67;1423892;90;22938;-82
2022/01/10 09:51:30;;;;;;;46.37;26.67;;;;;;;-1.65;75.69;100001.39;1381499;90;22169;-82
2022/01/10 09:53:59;;;;;;;41.83;24.00;;;;;;;-0.88;71.85;99997.27;1374029;90;21580;-81
2022/01/10 09:56:29;;;;;;;35.37;21.03;;;;;;;-0.31;69.51;99996.18;1375449;90;21707;-82
2022/01/10 09:58:57;;;;;;;40.30;23.80;;;;;;;-0.18;68.08;99997.12;1391685;90;21628;-80
2022/01/10 10:01:27;;;;;;;36.87;22.60;;;;;;;0.71;67.29;99994.37;1428251;88;21750;-81
2022/01/10 10:03:59;;;;;;;31.20;18.80;;;;;;;1.15;66.46;100003.75;1448840;88;22111;-81
2022/01/10 10:06:29;;;;;;;37.43;22.43;;;;;;;1.41;62.71;100010.37;1399648;87;23407;-82
2022/01/10 10:09:04;;;;;;;36.97;22.00;;;;;;;1.41;62.71;100014.70;1434483;88;21350;-83
2022/01/10 10:11:47;;;;;;;31.80;19.93;;;;;;;1.74;63.37;100014.70;1389035;88;21526;-80
2022/01/10 10:14:19;;;;;;;33.33;22.17;;;;;;;1.90;62.42;100012.36;1435985;88;21363;-81
2022/01/10 10:16:49;;;;;;;34.87;22.43;;;;;;;2.06;62.52;100016.10;1450725;88;21487;-83
2022/01/10 10:19:22;;;;;;;32.07;20.37;;;;;;;1.82;62.42;100014.67;1448424;88;21620;-80
2022/01/10 10:21:55;;;;;;;29.03;19.07;;;;;;;1.99;62.26;100015.69;1449085;88;21468;-80
2022/01/10 10:24:23;;;;;;;30.33;19.83;;;;;;;2.08;62.51;100017.67;1377294;88;21461;-80
2022/01/10 10:26:52;;;;;;;28.03;17.97;;;;;;;2.45;62.28;100009.95;1407589;88;21384;-80
2022/01/10 10:29:19;;;;;;;30.13;18.83;;;;;;;2.05;62.19;100007.44;1401942;88;21492;-81
2022/01/10 10:31:53;;;;;;;25.53;16.20;;;;;;;2.32;62.23;100007.80;1392852;88;22241;-80
2022/01/10 10:34:27;;;;;;;24.77;16.00;;;;;;;2.35;62.75;100011.50;1432203;88;21341;-81
2022/01/10 10:37:07;;;;;;;27.50;16.90;;;;;;;1.93;63.04;100017.41;1418438;88;21338;-81
2022/01/10 10:39:41;;;;;;;23.60;12.53;;;;;;;1.95;63.70;100018.95;1383463;88;21364;-80
2022/01/10 10:42:12;;;;;;;18.30;11.73;;;;;;;1.85;63.54;100018.38;1401670;88;21501;-79
2022/01/10 10:44:42;;;;;;;20.50;11.60;;;;;;;1.65;64.80;100023.13;1435320;88;21331;-79
2022/01/10 10:47:16;;;;;;;20.43;14.00;;;;;;;1.80;64.64;100022.11;1428599;88;21323;-79
2022/01/10 10:49:46;;;;;;;19.20;12.00;;;;;;;1.87;65.69;100021.26;1428760;88;21603;-79
2022/01/10 10:52:13;;;;;;;16.13;10.30;;;;;;;1.80;65.08;100023.41;1399430;88;21599;-80
2022/01/10 10:54:41;;;;;;;17.00;10.27;;;;;;;1.68;65.09;100021.62;1387551;87;21339;-79
2022/01/10 10:57:11;;;;;;;23.07;11.83;;;;;;;1.74;65.55;100022.52;1395506;88;21378;-79
2022/01/10 10:59:43;;;;;;;22.30;12.33;;;;;;;1.95;64.83;100028.55;1423783;88;21355;-79
2022/01/10 11:02:08;;;;;;;20.07;10.63;;;;;;;1.82;65.54;100029.02;1426884;89;21547;-79
2022/01/10 11:04:35;;;;;;;25.77;12.93;;;;;;;1.82;65.06;100026.41;1442454;88;21525;-80
2022/01/10 11:07:03;;;;;;;43.37;19.90;;;;;;;1.91;65.74;100035.77;1440724;88;21493;-80
2022/01/10 11:09:31;;;;;;;17.20;10.33;;;;;;;2.13;65.19;100027.78;1418891;90;21484;-80
2022/01/10 11:11:58;;;;;;;22.80;12.23;;;;;;;2.06;64.89;100026.06;1401194;91;21546;-79
2022/01/10 11:14:26;;;;;;;30.73;16.63;;;;;;;2.07;64.87;100029.03;1398588;91;22444;-82
2022/01/10 11:16:54;;;;;;;40.93;19.03;;;;;;;2.41;64.72;100027.58;1397502;91;21431;-81
2022/01/10 11:19:26;;;;;;;55.47;23.27;;;;;;;2.42;63.52;100031.05;1383101;92;21386;-83
2022/01/10 11:22:08;;;;;;;20.33;11.07;;;;;;;2.62;64.14;100032.30;1339642;91;21434;-80
2022/01/10 11:24:53;;;;;;;73.70;32.20;;;;;;;2.99;63.01;100029.21;1396064;90;21368;-81
2022/01/10 11:27:29;;;;;;;20.97;10.23;;;;;;;3.42;62.54;100030.05;1359024;90;21498;-80
2022/01/10 11:29:58;;;;;;;56.23;24.10;;;;;;;3.09;60.34;100030.24;1393133;91;21469;-80
2022/01/10 11:32:51;;;;;;;19.20;11.27;;;;;;;3.58;61.70;100033.71;1385206;91;21425;-80
2022/01/10 11:35:19;;;;;;;20.80;11.43;;;;;;;3.58;60.06;100032.41;1327918;90;22412;-81
2022/01/10 11:37:47;;;;;;;23.37;11.87;;;;;;;4.02;58.41;100030.87;1336607;91;21497;-80